Lampasas, TX

4:54 PM CDT on September 03, 2015 (GMT -0500)
Lake Victor, Texas @austingunclub | | Change Station
CLOSE
Current Station
Personal Weather Station
Location: Lake Victor, TX
Elevation: 1355 ft
Nearby Weather Stations

Elev 1355 ft 30.93 °N, 98.17 °W | Updated 1 day ago

Clear
Clear
90 °F
Feels Like 91 °F
N
8
Wind Variable Wind from ESE
Gusts mph

Today
High -- | Low -- °F
--% Chance of Precip.
Yesterday
High -- | Low -- °F
Precip. -- in
7:09 AM 7:53 PM
Waning Gibbous, 66% visible
Pressure 29.86 in
Visibility 10.0 miles
Clouds Clear
Heat Index 91 °F
Dew Point 65 °F
Humidity 44%
Rainfall in
Snow Depth Not available.
UV 7 out of 12
Pollen 7.20 out of 12
Air Quality Not available.
Flu Activity Not available.
METAR KGRK 032058Z AUTO 12008KT 10SM CLR 33/18 A2989 RMK AO2 SLP111 T03290184 57024
Pressure 29.86 in
Visibility 10.0 miles
Clouds Clear
Heat Index 91 °F
Dew Point 65 °F
Humidity 44%
Rainfall in
Snow Depth Not available.
UV 7 out of 12
Pollen 7.20 out of 12
Air Quality Not available.
Flu Activity Not available.
METAR KGRK 032058Z AUTO 12008KT 10SM CLR 33/18 A2989 RMK AO2 SLP111 T03290184 57024
Nowcast | as of 2:08 PM CDT on September 3, 2015

Isolated showers...along with a rumble of thunder or two will be possible this afternoon mainly along and southeast of a Canton to Marlin to Thorndale line. Rainfall amounts should remain light...generally less than one quarter of an inch. Cloud to ground lightning and gusty winds up to 30 mph may be possible with the stronger storms should they develop. Otherwise...temperatures are expected to climb into the mid to upper 90s beneath partly to mostly sunny skies.

×

10-Day Weather Forecast

×

Almanac

Astronomy

Sep. 03, 2015 Rise Set
Actual Time
Civil Twilight
Nautical Twilight
Astronomical Twilight
Moon
Length of Visible Light
Length of Day
Tomorrow will be .
, % of the Moon is Illuminated

Today's Extremes

State Highs State Lows

Community

WunderPhotos

Upload Photos

1,852,045 photos uploaded!

WunderBlogs® & News

Nearby

Air Quality

  Air Quality AQ Index Pollutant
Not available.

Snow Depth

Station Depth Elevation

Earthquake Activity

City Distance Mag. Time & Date
Minimum magnitude displayed is 2.5.

Coastal Water Temperatures

Place Temperature

Stations

Nearby Weather Stations

Station Location Temp. Windchill Dew Point Humidity Wind Precip. Elev Updated Type